Time;durP1;ratioP1;P1;durP2;ratioP2;P2;SDS_P1;SDS_P2;PMS_P1;PMS_P2;Temp;Humidity;BMP_temperature;BMP_pressure;BME280_temperature;BME280_humidity;BME280_pressure;Samples;Min_cycle;Max_cycle;Signal;HPM_P1;HPM_P2
2022/03/14 00:02:17;;;;;;;12.20;5.45;;;7.80;99.90;;;;;;5089439;28;20055;-56
2022/03/14 00:04:45;;;;;;;15.18;4.70;;;7.80;99.90;;;;;;5089143;28;20036;-57
2022/03/14 00:07:13;;;;;;;12.55;4.95;;;7.90;99.90;;;;;;5089001;28;20098;-53
2022/03/14 00:09:40;;;;;;;14.13;4.97;;;7.90;99.90;;;;;;5089304;28;20548;-56
2022/03/14 00:12:13;;;;;;;13.77;4.75;;;7.90;99.90;;;;;;5071479;28;20048;-56
2022/03/14 00:14:39;;;;;;;15.02;4.45;;;7.90;99.90;;;;;;5089112;28;20105;-59
2022/03/14 00:17:10;;;;;;;17.38;3.95;;;7.90;99.90;;;;;;5089461;28;20048;-55
2022/03/14 00:19:37;;;;;;;12.50;3.28;;;7.80;99.90;;;;;;5087854;28;20127;-56
2022/03/14 00:22:04;;;;;;;12.48;3.05;;;7.80;99.90;;;;;;5089437;28;20083;-57
2022/03/14 00:24:31;;;;;;;15.18;3.40;;;7.90;99.90;;;;;;5089271;28;20044;-56
2022/03/14 00:26:59;;;;;;;13.60;3.42;;;8.00;99.90;;;;;;5085546;28;20526;-55
2022/03/14 00:29:26;;;;;;;15.82;3.92;;;8.00;99.90;;;;;;5089033;28;20091;-57
2022/03/14 00:31:53;;;;;;;10.02;3.22;;;8.00;99.90;;;;;;5088343;28;20147;-54
2022/03/14 00:34:20;;;;;;;9.65;3.05;;;8.00;99.90;;;;;;5088926;28;20051;-54
2022/03/14 00:36:47;;;;;;;10.98;3.42;;;8.00;99.90;;;;;;5070558;28;20093;-53
2022/03/14 00:39:14;;;;;;;9.32;2.95;;;8.00;99.90;;;;;;5088929;28;20135;-52
2022/03/14 00:41:40;;;;;;;19.38;4.53;;;8.00;99.90;;;;;;5088506;28;20119;-55
2022/03/14 00:44:07;;;;;;;13.32;2.90;;;8.00;99.90;;;;;;5088671;28;20088;-57
2022/03/14 00:46:37;;;;;;;4.13;2.25;;;8.00;99.90;;;;;;5088528;28;20098;-56
2022/03/14 00:49:04;;;;;;;9.57;3.25;;;7.90;99.90;;;;;;5084319;28;20087;-55
2022/03/14 00:51:32;;;;;;;12.35;2.78;;;8.00;99.90;;;;;;5088079;28;20047;-58
2022/03/14 00:53:59;;;;;;;9.93;2.92;;;7.90;99.90;;;;;;5089024;28;20098;-57
2022/03/14 00:56:27;;;;;;;20.58;3.40;;;7.90;99.90;;;;;;5088126;28;20048;-57
2022/03/14 00:58:54;;;;;;;11.80;4.13;;;7.90;99.90;;;;;;5084602;28;20097;-55
2022/03/14 01:01:21;;;;;;;10.93;2.50;;;8.00;99.90;;;;;;5087867;28;20079;-58
2022/03/14 01:03:48;;;;;;;13.45;2.45;;;8.00;99.90;;;;;;5088024;28;20040;-56
2022/03/14 01:06:15;;;;;;;14.95;2.72;;;8.00;99.90;;;;;;5088103;28;20454;-54
2022/03/14 01:08:42;;;;;;;14.43;2.75;;;8.00;99.90;;;;;;5070511;28;20071;-56
2022/03/14 01:11:09;;;;;;;15.80;3.20;;;8.00;99.90;;;;;;5087590;28;20090;-56
2022/03/14 01:13:35;;;;;;;9.68;3.38;;;8.00;99.90;;;;;;5088404;28;20047;-55
2022/03/14 01:16:03;;;;;;;13.30;2.72;;;8.00;99.90;;;;;;5087913;28;20040;-57
2022/03/14 01:18:30;;;;;;;6.95;2.20;;;8.00;99.90;;;;;;5087990;28;20135;-56
2022/03/14 01:20:57;;;;;;;12.45;2.53;;;8.00;99.90;;;;;;5087606;28;20040;-58
2022/03/14 01:23:23;;;;;;;5.35;1.88;;;8.00;99.90;;;;;;5087548;28;20044;-56
2022/03/14 01:25:51;;;;;;;6.50;2.67;;;8.00;99.90;;;;;;5087439;28;20144;-57
2022/03/14 01:28:18;;;;;;;11.55;2.20;;;8.00;99.90;;;;;;5087039;28;20056;-55
2022/03/14 01:30:44;;;;;;;6.10;2.20;;;8.10;99.90;;;;;;4734049;28;10000817;-54
2022/03/14 01:33:12;;;;;;;6.13;2.20;;;8.10;99.90;;;;;;5084208;28;20047;-56
2022/03/14 01:35:39;;;;;;;7.75;2.17;;;8.10;99.90;;;;;;5085733;28;20047;-52
2022/03/14 01:38:06;;;;;;;9.15;3.50;;;8.10;99.90;;;;;;5087349;28;20048;-56
2022/03/14 01:40:33;;;;;;;10.90;2.50;;;8.20;99.90;;;;;;5087521;28;20044;-52
2022/03/14 01:42:59;;;;;;;9.30;2.42;;;8.20;99.90;;;;;;5087115;28;20097;-56
2022/03/14 01:45:26;;;;;;;12.25;2.78;;;8.20;99.90;;;;;;5080923;28;20148;-58
2022/03/14 01:47:53;;;;;;;7.80;2.08;;;8.30;99.90;;;;;;5087055;28;20056;-55
2022/03/14 01:50:22;;;;;;;19.67;3.70;;;8.30;99.90;;;;;;5068573;28;20083;-60
2022/03/14 01:52:48;;;;;;;8.75;2.40;;;8.40;99.90;;;;;;5087066;28;20073;-55
2022/03/14 01:55:15;;;;;;;9.43;2.50;;;8.30;99.90;;;;;;5087593;28;20266;-59
2022/03/14 01:57:42;;;;;;;19.48;4.50;;;8.30;99.90;;;;;;5087141;28;20399;-57
2022/03/14 02:00:10;;;;;;;11.05;2.92;;;8.40;99.90;;;;;;5087206;28;20040;-55
2022/03/14 02:02:37;;;;;;;9.15;2.00;;;8.40;99.90;;;;;;5086873;28;20064;-64
2022/03/14 02:05:05;;;;;;;19.75;2.90;;;8.50;99.90;;;;;;5087413;28;20403;-58
2022/03/14 02:07:32;;;;;;;8.85;2.55;;;8.50;99.90;;;;;;5087244;28;20051;-56
2022/03/14 02:09:59;;;;;;;11.60;3.28;;;8.50;99.90;;;;;;5087045;28;20388;-57
2022/03/14 02:12:26;;;;;;;11.80;3.15;;;8.60;99.90;;;;;;5086841;28;20089;-57
2022/03/14 02:14:52;;;;;;;15.10;3.55;;;8.60;99.90;;;;;;5086500;28;20075;-57
2022/03/14 02:17:20;;;;;;;10.80;2.92;;;8.60;99.90;;;;;;5086885;28;20113;-56
2022/03/14 02:19:47;;;;;;;17.55;3.92;;;8.60;99.90;;;;;;5086613;28;20048;-57
2022/03/14 02:22:14;;;;;;;7.70;3.15;;;8.60;99.90;;;;;;5086378;28;20047;-57
2022/03/14 02:24:41;;;;;;;18.92;3.15;;;8.60;99.90;;;;;;5086676;28;20036;-57
2022/03/14 02:27:08;;;;;;;10.63;2.65;;;8.60;99.90;;;;;;5087233;28;20312;-57
2022/03/14 02:29:35;;;;;;;10.68;2.75;;;8.50;99.90;;;;;;5085594;28;20048;-57
2022/03/14 02:32:02;;;;;;;15.80;2.60;;;8.60;99.90;;;;;;5086693;28;20047;-58
2022/03/14 02:34:29;;;;;;;11.38;3.42;;;8.50;99.90;;;;;;5086373;28;20040;-58
2022/03/14 02:36:55;;;;;;;18.35;3.28;;;8.50;99.90;;;;;;5087060;28;20047;-56
2022/03/14 02:39:22;;;;;;;15.77;3.03;;;8.60;99.90;;;;;;5086735;28;20082;-55
2022/03/14 02:41:49;;;;;;;10.15;3.13;;;8.60;99.90;;;;;;5086166;28;20099;-56
2022/03/14 02:44:16;;;;;;;11.00;3.03;;;8.60;99.90;;;;;;5086957;28;20124;-56
2022/03/14 02:46:42;;;;;;;15.80;2.20;;;8.50;99.90;;;;;;5086817;28;20475;-56
2022/03/14 02:49:10;;;;;;;9.15;2.30;;;8.50;99.90;;;;;;5078249;28;20459;-55
2022/03/14 02:51:41;;;;;;;10.50;2.95;;;8.40;99.90;;;;;;5086756;28;20102;-55
2022/03/14 02:54:09;;;;;;;12.32;2.30;;;8.30;99.90;;;;;;5086295;28;20839;-56
2022/03/14 02:56:36;;;;;;;18.58;2.67;;;8.30;99.90;;;;;;5082729;28;20110;-55
2022/03/14 02:59:04;;;;;;;15.07;3.10;;;8.30;99.90;;;;;;5065579;28;20090;-56
2022/03/14 03:01:30;;;;;;;15.88;3.47;;;8.10;99.90;;;;;;5086292;28;20055;-57
2022/03/14 03:03:58;;;;;;;11.60;3.38;;;8.10;99.90;;;;;;5086319;28;20687;-55
2022/03/14 03:06:24;;;;;;;16.80;3.20;;;8.10;99.90;;;;;;5086614;28;20060;-56
2022/03/14 03:08:52;;;;;;;13.05;3.03;;;8.00;99.90;;;;;;5086611;28;20510;-54
2022/03/14 03:11:20;;;;;;;15.25;2.42;;;7.90;99.90;;;;;;5085732;28;20084;-56
2022/03/14 03:13:47;;;;;;;10.70;3.35;;;7.90;99.90;;;;;;5068927;28;20071;-53
2022/03/14 03:16:15;;;;;;;11.98;2.40;;;7.90;99.90;;;;;;5086001;28;20725;-56
2022/03/14 03:18:43;;;;;;;10.10;3.13;;;7.80;99.90;;;;;;5086016;28;20052;-58
2022/03/14 03:21:10;;;;;;;11.57;2.53;;;7.80;99.90;;;;;;5086146;28;20041;-57
2022/03/14 03:23:36;;;;;;;8.98;2.30;;;7.70;99.90;;;;;;5086189;28;20071;-56
2022/03/14 03:26:04;;;;;;;17.92;2.65;;;7.70;99.90;;;;;;5085808;28;20680;-57
2022/03/14 03:28:40;;;;;;;12.30;2.60;;;7.60;99.90;;;;;;5086227;28;20080;-57
2022/03/14 03:31:11;;;;;;;14.32;2.47;;;7.60;99.90;;;;;;5086135;28;20084;-57
2022/03/14 03:33:38;;;;;;;19.13;4.30;;;7.60;99.90;;;;;;5086453;28;20406;-55
2022/03/14 03:36:08;;;;;;;11.48;3.50;;;7.60;99.90;;;;;;5085878;28;20047;-57
2022/03/14 03:38:35;;;;;;;9.05;2.13;;;7.60;99.90;;;;;;5067770;28;20270;-54
2022/03/14 03:41:03;;;;;;;17.15;2.90;;;7.50;99.90;;;;;;5086277;28;20095;-56
2022/03/14 03:43:30;;;;;;;10.85;3.50;;;7.50;99.90;;;;;;5085911;28;20499;-56
2022/03/14 03:45:57;;;;;;;19.45;4.00;;;7.50;99.90;;;;;;5086418;28;20056;-55
2022/03/14 03:48:24;;;;;;;14.57;2.45;;;7.50;99.90;;;;;;5086008;28;20048;-56
2022/03/14 03:50:50;;;;;;;10.18;2.22;;;7.40;99.90;;;;;;5086402;28;20060;-56
2022/03/14 03:53:17;;;;;;;9.52;2.97;;;7.40;99.90;;;;;;5087527;28;20036;-56
2022/03/14 03:55:44;;;;;;;10.93;3.55;;;7.40;99.90;;;;;;5089972;28;20044;-55
2022/03/14 03:58:11;;;;;;;8.25;2.38;;;7.30;99.90;;;;;;5089408;28;20109;-54
2022/03/14 04:00:38;;;;;;;18.02;2.63;;;7.30;99.90;;;;;;5089991;28;20076;-53
2022/03/14 04:03:05;;;;;;;18.15;2.90;;;7.30;99.90;;;;;;5080191;28;20087;-54
2022/03/14 04:05:32;;;;;;;14.80;3.05;;;7.30;99.90;;;;;;5084966;28;20113;-56
2022/03/14 04:08:00;;;;;;;14.43;3.03;;;7.30;99.90;;;;;;5088571;28;20072;-56
2022/03/14 04:10:29;;;;;;;18.95;3.10;;;7.20;99.90;;;;;;5089808;28;20043;-57
2022/03/14 04:13:02;;;;;;;21.23;3.13;;;7.20;99.90;;;;;;5089350;28;20132;-55
2022/03/14 04:15:29;;;;;;;24.77;5.45;;;7.30;99.90;;;;;;5089910;28;20047;-54
2022/03/14 04:17:59;;;;;;;14.63;2.30;;;7.10;99.90;;;;;;5088998;28;20052;-60
2022/03/14 04:20:26;;;;;;;11.23;2.78;;;7.10;99.90;;;;;;5088757;28;20044;-56
2022/03/14 04:22:53;;;;;;;14.85;2.75;;;7.10;99.90;;;;;;5088913;28;20487;-55
2022/03/14 04:25:19;;;;;;;13.98;2.75;;;7.10;99.90;;;;;;5089134;28;20079;-56
2022/03/14 04:27:46;;;;;;;18.23;3.40;;;7.10;99.90;;;;;;5088916;28;20140;-54
2022/03/14 04:30:14;;;;;;;16.33;2.70;;;7.00;99.90;;;;;;5069024;28;20075;-56
2022/03/14 04:32:41;;;;;;;18.20;2.90;;;7.00;99.90;;;;;;5068689;28;20083;-57
2022/03/14 04:35:08;;;;;;;17.92;3.33;;;7.00;99.90;;;;;;5068989;28;20080;-55
2022/03/14 04:37:36;;;;;;;11.23;2.80;;;7.00;99.90;;;;;;5068625;28;20102;-56
2022/03/14 04:40:04;;;;;;;17.33;3.45;;;6.90;99.90;;;;;;5069026;28;20052;-55
2022/03/14 04:42:30;;;;;;;9.40;2.97;;;6.90;99.90;;;;;;5068642;28;20077;-57
2022/03/14 04:44:57;;;;;;;13.35;2.85;;;6.90;99.90;;;;;;5067224;28;20071;-56
2022/03/14 04:47:26;;;;;;;12.95;2.22;;;6.80;99.90;;;;;;5069005;28;20122;-57
2022/03/14 04:49:53;;;;;;;13.95;3.10;;;6.80;99.90;;;;;;5067574;28;20500;-56
2022/03/14 04:52:21;;;;;;;8.73;2.00;;;6.70;99.90;;;;;;5068723;28;20080;-54
2022/03/14 04:54:53;;;;;;;6.13;1.90;;;6.70;99.90;;;;;;5068178;28;20056;-56
2022/03/14 04:57:20;;;;;;;13.02;2.22;;;6.70;99.90;;;;;;5068145;28;20080;-55
2022/03/14 04:59:47;;;;;;;14.48;3.47;;;6.70;99.90;;;;;;5068128;28;20076;-57
2022/03/14 05:02:14;;;;;;;9.20;2.53;;;6.70;99.90;;;;;;5068885;28;20747;-55
2022/03/14 05:04:41;;;;;;;12.80;2.35;;;6.60;99.90;;;;;;5066393;28;20071;-56
2022/03/14 05:07:08;;;;;;;8.77;2.20;;;6.60;99.90;;;;;;5068285;28;20136;-56
2022/03/14 05:09:34;;;;;;;8.23;2.22;;;6.60;99.90;;;;;;5068040;28;20076;-55
2022/03/14 05:12:01;;;;;;;12.52;2.13;;;6.60;99.90;;;;;;5068438;28;20044;-57
2022/03/14 05:14:29;;;;;;;10.30;2.90;;;6.60;99.90;;;;;;5067888;28;20040;-59
2022/03/14 05:16:57;;;;;;;14.18;2.28;;;6.60;99.90;;;;;;5068066;28;20052;-58
2022/03/14 05:19:24;;;;;;;6.70;1.67;;;6.50;99.90;;;;;;5066914;28;20569;-53
2022/03/14 05:21:51;;;;;;;12.98;1.83;;;6.50;99.90;;;;;;5068463;28;20083;-56
2022/03/14 05:24:17;;;;;;;12.10;4.00;;;6.40;99.90;;;;;;5067471;28;20083;-56
2022/03/14 05:26:47;;;;;;;7.50;2.10;;;6.40;99.90;;;;;;5068029;28;20132;-57
2022/03/14 05:29:15;;;;;;;15.07;2.03;;;6.40;99.90;;;;;;5078852;28;20123;-55
2022/03/14 05:31:42;;;;;;;9.35;1.70;;;6.30;99.90;;;;;;5084586;28;20487;-58
2022/03/14 05:34:09;;;;;;;9.25;2.22;;;6.20;99.90;;;;;;5087841;28;20048;-55
2022/03/14 05:36:37;;;;;;;6.95;2.40;;;6.20;99.90;;;;;;5087121;28;20491;-56
2022/03/14 05:39:04;;;;;;;11.65;2.50;;;6.10;99.90;;;;;;5088015;28;20082;-55
2022/03/14 05:41:31;;;;;;;7.40;2.42;;;6.10;99.90;;;;;;5087223;28;20079;-54
2022/03/14 05:43:58;;;;;;;14.35;2.33;;;6.00;99.90;;;;;;5087745;28;20075;-58
2022/03/14 05:46:24;;;;;;;7.70;2.83;;;6.00;99.90;;;;;;5087382;28;20091;-53
2022/03/14 05:48:51;;;;;;;9.82;2.03;;;6.00;99.90;;;;;;5086877;28;20048;-51
2022/03/14 05:51:18;;;;;;;10.60;2.15;;;5.90;99.90;;;;;;5069320;28;20087;-56
2022/03/14 05:53:49;;;;;;;7.78;1.33;;;5.80;99.90;;;;;;5087498;28;20040;-56
2022/03/14 05:56:16;;;;;;;9.85;2.25;;;5.70;99.90;;;;;;5087560;28;20470;-55
2022/03/14 05:58:43;;;;;;;10.98;2.80;;;5.70;99.90;;;;;;5068814;28;20135;-55
2022/03/14 06:01:10;;;;;;;11.88;3.17;;;5.70;99.90;;;;;;5078880;28;20036;-55
2022/03/14 06:03:37;;;;;;;9.60;2.63;;;5.70;99.90;;;;;;5087923;28;20047;-55
2022/03/14 06:06:04;;;;;;;7.53;3.13;;;5.70;99.90;;;;;;5086707;28;20067;-56
2022/03/14 06:08:30;;;;;;;7.88;2.10;;;5.70;99.90;;;;;;5087683;28;20105;-55
2022/03/14 06:10:57;;;;;;;6.50;2.35;;;5.60;99.90;;;;;;5086768;28;20495;-55
2022/03/14 06:13:25;;;;;;;9.05;2.80;;;5.60;99.90;;;;;;5087487;28;20109;-56
2022/03/14 06:15:51;;;;;;;9.40;2.33;;;5.70;99.90;;;;;;5086492;28;20087;-55
2022/03/14 06:18:19;;;;;;;10.57;2.80;;;5.60;99.90;;;;;;5086926;28;20040;-55
2022/03/14 06:20:46;;;;;;;6.20;2.30;;;5.50;99.90;;;;;;5087331;28;20042;-56
2022/03/14 06:23:14;;;;;;;7.35;2.10;;;5.50;99.90;;;;;;5086749;28;20319;-53
2022/03/14 06:25:41;;;;;;;7.72;2.08;;;5.50;99.90;;;;;;5087106;28;20119;-53
2022/03/14 06:28:08;;;;;;;6.53;2.00;;;5.50;99.90;;;;;;5086306;28;20109;-57
2022/03/14 06:30:35;;;;;;;4.75;2.20;;;5.50;99.90;;;;;;5086683;28;20105;-54
2022/03/14 06:33:02;;;;;;;8.55;1.60;;;5.50;99.90;;;;;;5086941;28;20105;-57
2022/03/14 06:35:28;;;;;;;7.25;1.85;;;5.60;99.90;;;;;;5087317;28;20430;-55
2022/03/14 06:37:55;;;;;;;4.03;1.70;;;5.50;99.90;;;;;;5086996;28;20044;-55
2022/03/14 06:40:23;;;;;;;7.85;1.90;;;5.50;99.90;;;;;;5087092;28;20418;-56
2022/03/14 06:42:52;;;;;;;10.57;2.90;;;5.40;99.90;;;;;;5086791;28;20553;-55
2022/03/14 06:45:21;;;;;;;11.18;2.25;;;5.40;99.90;;;;;;5086908;28;20047;-53
2022/03/14 06:47:51;;;;;;;9.40;2.17;;;5.50;99.90;;;;;;5085924;28;20071;-57
2022/03/14 06:50:18;;;;;;;6.47;2.05;;;5.50;99.90;;;;;;5086755;28;20090;-56
2022/03/14 06:52:45;;;;;;;7.30;2.25;;;5.60;99.90;;;;;;5086156;28;20040;-58
2022/03/14 06:55:12;;;;;;;9.80;2.88;;;5.70;99.90;;;;;;5087387;28;20557;-56
2022/03/14 06:57:39;;;;;;;9.05;1.90;;;5.70;99.90;;;;;;5086684;28;20105;-54
2022/03/14 07:00:07;;;;;;;10.70;3.13;;;5.80;99.90;;;;;;5086349;28;20117;-55
2022/03/14 07:02:35;;;;;;;6.45;2.00;;;5.90;99.90;;;;;;5086916;28;20048;-54
2022/03/14 07:05:02;;;;;;;6.97;2.30;;;5.90;99.90;;;;;;5068540;28;20054;-56
2022/03/14 07:07:29;;;;;;;10.00;3.15;;;6.00;99.90;;;;;;5086143;28;20066;-56
2022/03/14 07:09:55;;;;;;;10.30;2.72;;;6.00;99.90;;;;;;5086292;28;20491;-55
2022/03/14 07:12:22;;;;;;;10.30;2.92;;;6.00;99.90;;;;;;5085838;28;20064;-56
2022/03/14 07:14:49;;;;;;;7.97;3.75;;;6.10;99.90;;;;;;5086304;28;20048;-55
2022/03/14 07:17:16;;;;;;;15.00;2.90;;;6.10;99.90;;;;;;5086826;28;20072;-57
2022/03/14 07:19:45;;;;;;;6.60;2.10;;;6.20;99.90;;;;;;5051200;28;20048;-59
2022/03/14 07:22:19;;;;;;;7.55;2.28;;;6.20;99.90;;;;;;5086676;28;20044;-56
2022/03/14 07:24:51;;;;;;;7.35;1.98;;;6.20;99.90;;;;;;5086205;28;20388;-55
2022/03/14 07:27:18;;;;;;;7.18;2.28;;;6.30;99.90;;;;;;5068579;28;20101;-57
2022/03/14 07:29:45;;;;;;;7.97;2.20;;;6.30;99.90;;;;;;5089364;28;20345;-54
2022/03/14 07:32:13;;;;;;;8.88;2.03;;;6.40;99.90;;;;;;5089818;28;20049;-58
2022/03/14 07:34:40;;;;;;;6.75;1.73;;;6.40;99.90;;;;;;5089728;28;20534;-56
2022/03/14 07:37:07;;;;;;;4.53;1.90;;;6.50;99.90;;;;;;5090067;28;20498;-54
2022/03/14 07:39:34;;;;;;;8.13;1.80;;;6.60;99.90;;;;;;5071749;28;20075;-56
2022/03/14 07:42:01;;;;;;;15.07;2.97;;;6.70;99.90;;;;;;5086637;28;20044;-53
2022/03/14 07:44:27;;;;;;;5.28;2.00;;;6.70;99.90;;;;;;5087837;28;20499;-58
2022/03/14 07:46:54;;;;;;;10.82;2.85;;;6.80;99.90;;;;;;5088130;28;20109;-55
2022/03/14 07:49:22;;;;;;;9.25;1.90;;;6.90;99.90;;;;;;5087098;28;20047;-56
2022/03/14 07:51:48;;;;;;;9.57;1.88;;;6.90;99.90;;;;;;5086484;28;20465;-55
2022/03/14 07:54:15;;;;;;;18.00;2.80;;;7.00;99.90;;;;;;5086501;28;20071;-56
2022/03/14 07:56:42;;;;;;;10.98;2.50;;;7.10;99.90;;;;;;5084981;28;20040;-58
2022/03/14 07:59:09;;;;;;;6.90;1.63;;;7.20;99.90;;;;;;5086526;28;20596;-52
2022/03/14 08:01:36;;;;;;;11.32;1.90;;;7.20;99.90;;;;;;5086298;28;20101;-55
2022/03/14 08:04:04;;;;;;;6.40;1.52;;;7.20;99.90;;;;;;5086258;28;20090;-54
2022/03/14 08:06:35;;;;;;;9.45;2.00;;;7.30;99.90;;;;;;5086314;28;20043;-54
2022/03/14 08:09:02;;;;;;;12.68;1.95;;;7.40;99.90;;;;;;5085436;28;20424;-55
2022/03/14 08:11:30;;;;;;;10.40;3.85;;;7.50;99.90;;;;;;5087668;28;20036;-54
2022/03/14 08:13:58;;;;;;;10.88;2.05;;;7.60;99.90;;;;;;5069295;28;20040;-58
2022/03/14 08:16:25;;;;;;;10.90;1.50;;;7.60;99.90;;;;;;5087308;28;20036;-56
2022/03/14 08:18:52;;;;;;;5.93;1.20;;;7.70;99.90;;;;;;5087925;28;20044;-55
2022/03/14 08:21:18;;;;;;;23.92;2.55;;;7.90;99.90;;;;;;5088124;28;20520;-55
2022/03/14 08:23:46;;;;;;;18.52;2.65;;;8.00;99.90;;;;;;5089265;28;20078;-57
2022/03/14 08:26:17;;;;;;;13.43;2.35;;;8.10;99.90;;;;;;5088730;28;20090;-54
2022/03/14 08:28:44;;;;;;;5.80;1.25;;;8.10;99.90;;;;;;5088332;28;20064;-55
2022/03/14 08:31:11;;;;;;;8.65;2.03;;;8.20;99.90;;;;;;5088213;28;20036;-54
2022/03/14 08:33:41;;;;;;;6.43;1.52;;;8.30;99.90;;;;;;5053871;28;20135;-55
2022/03/14 08:36:08;;;;;;;6.72;1.60;;;8.30;99.90;;;;;;5088381;28;20048;-55
2022/03/14 08:38:34;;;;;;;11.63;2.10;;;8.40;99.90;;;;;;5087403;28;20127;-56
2022/03/14 08:41:01;;;;;;;15.00;4.50;;;8.50;99.90;;;;;;5088323;28;20080;-56
2022/03/14 08:43:28;;;;;;;9.95;1.95;;;8.50;99.90;;;;;;5088636;28;20080;-55
2022/03/14 08:45:55;;;;;;;11.00;1.55;;;8.60;99.90;;;;;;5087701;28;20102;-52
2022/03/14 08:48:22;;;;;;;17.77;1.63;;;8.60;99.90;;;;;;5088580;28;20043;-56
2022/03/14 08:50:49;;;;;;;11.57;2.03;;;8.70;99.90;;;;;;5088233;28;20052;-59
2022/03/14 08:53:16;;;;;;;13.20;1.98;;;8.70;99.90;;;;;;5083858;28;20093;-55
2022/03/14 08:55:43;;;;;;;16.05;2.38;;;8.80;99.90;;;;;;5092191;28;20076;-55
2022/03/14 08:58:10;;;;;;;11.48;1.73;;;8.90;99.90;;;;;;5087406;28;20098;-56
2022/03/14 09:00:38;;;;;;;10.40;1.90;;;8.90;99.90;;;;;;5077973;28;20040;-57
2022/03/14 09:03:05;;;;;;;13.80;1.73;;;9.10;99.90;;;;;;5087492;28;20052;-59
2022/03/14 09:05:32;;;;;;;20.05;3.53;;;9.20;99.90;;;;;;5087955;28;20040;-57
2022/03/14 09:07:59;;;;;;;13.43;2.53;;;9.20;99.90;;;;;;5087593;28;20047;-57
2022/03/14 09:10:26;;;;;;;13.93;3.53;;;9.30;99.90;;;;;;5087849;28;20048;-54
2022/03/14 09:12:53;;;;;;;17.42;1.98;;;9.50;99.90;;;;;;5087085;28;20087;-55
2022/03/14 09:15:20;;;;;;;22.75;2.85;;;9.70;99.90;;;;;;5087558;28;20044;-56
2022/03/14 09:17:48;;;;;;;13.77;2.28;;;9.90;99.90;;;;;;5086814;28;20198;-54
2022/03/14 09:20:15;;;;;;;19.88;2.10;;;10.00;99.90;;;;;;5087225;28;20055;-56
2022/03/14 09:22:44;;;;;;;13.43;3.25;;;10.10;99.90;;;;;;5087432;28;20075;-55
2022/03/14 09:25:12;;;;;;;13.13;2.13;;;10.20;99.90;;;;;;5069807;28;20102;-54
2022/03/14 09:27:39;;;;;;;15.75;2.63;;;10.40;99.90;;;;;;5087325;28;20044;-55
2022/03/14 09:30:06;;;;;;;8.98;1.92;;;10.60;99.90;;;;;;5087410;28;20474;-56
2022/03/14 09:32:33;;;;;;;18.48;3.20;;;10.80;99.90;;;;;;5087247;28;20056;-56
2022/03/14 09:35:00;;;;;;;9.73;2.22;;;11.00;99.90;;;;;;5086924;28;20127;-56
2022/03/14 09:37:31;;;;;;;11.85;2.70;;;10.90;99.90;;;;;;5087138;28;20566;-56
2022/03/14 09:39:58;;;;;;;9.65;2.17;;;10.90;99.90;;;;;;5052231;28;20082;-57
2022/03/14 09:42:24;;;;;;;15.57;2.58;;;10.90;99.90;;;;;;5087543;28;20083;-56
2022/03/14 09:44:53;;;;;;;14.18;2.88;;;10.80;99.90;;;;;;5068974;28;20087;-57
2022/03/14 09:47:23;;;;;;;17.75;3.50;;;10.90;99.90;;;;;;5069315;28;20052;-54
2022/03/14 09:49:54;;;;;;;12.95;2.58;;;10.80;99.90;;;;;;5086257;28;20127;-54
2022/03/14 09:52:22;;;;;;;15.23;3.40;;;10.90;99.90;;;;;;5068532;28;20040;-56
2022/03/14 09:54:49;;;;;;;13.68;3.90;;;11.00;99.90;;;;;;5068742;28;20101;-54
2022/03/14 09:57:16;;;;;;;11.90;4.68;;;11.00;99.90;;;;;;5087251;28;20172;-56
2022/03/14 09:59:42;;;;;;;15.73;2.75;;;11.00;99.90;;;;;;5068338;28;20140;-56
2022/03/14 10:02:12;;;;;;;10.30;2.28;;;11.00;99.90;;;;;;5068961;28;20040;-56
2022/03/14 10:04:39;;;;;;;17.52;3.20;;;11.10;99.90;;;;;;5086533;28;20094;-54
2022/03/14 10:07:07;;;;;;;15.73;2.78;;;11.20;99.90;;;;;;5086025;28;20051;-55
2022/03/14 10:09:34;;;;;;;12.82;1.98;;;11.20;99.90;;;;;;5081325;28;20044;-56
2022/03/14 10:12:01;;;;;;;20.05;4.93;;;11.30;99.90;;;;;;5086457;28;20465;-54
2022/03/14 10:14:28;;;;;;;16.55;4.40;;;11.30;99.90;;;;;;5086063;28;20094;-54
2022/03/14 10:16:56;;;;;;;13.95;2.75;;;11.40;99.90;;;;;;5086186;28;20044;-55
2022/03/14 10:19:34;;;;;;;9.02;1.75;;;11.50;99.90;;;;;;5067369;28;20043;-53
2022/03/14 10:22:14;;;;;;;5.65;1.48;;;11.50;98.90;;;;;;5086943;28;20105;-56
2022/03/14 10:24:43;;;;;;;12.95;1.77;;;11.40;99.40;;;;;;5069169;28;20044;-55
2022/03/14 10:27:16;;;;;;;11.07;2.08;;;11.50;99.40;;;;;;5087199;28;20090;-54
2022/03/14 10:29:45;;;;;;;13.88;2.22;;;11.50;99.90;;;;;;5088416;28;20059;-55
2022/03/14 10:32:31;;;;;;;10.60;1.70;;;11.60;99.90;;;;;;5071681;28;20458;-53
2022/03/14 10:34:59;;;;;;;13.38;1.95;;;11.70;99.90;;;;;;5086242;28;20514;-54
2022/03/14 10:37:28;;;;;;;12.10;2.75;;;11.80;99.90;;;;;;5086658;28;20109;-54
2022/03/14 10:40:05;;;;;;;10.15;2.05;;;11.90;99.90;;;;;;5077903;28;20645;-53
2022/03/14 10:42:40;;;;;;;6.88;1.17;;;12.10;99.90;;;;;;5084340;28;20071;-54
2022/03/14 10:45:19;;;;;;;9.18;2.00;;;12.10;98.70;;;;;;5070935;28;20055;-57
2022/03/14 10:47:53;;;;;;;5.57;1.10;;;12.20;99.90;;;;;;5084099;28;20052;-53
2022/03/14 10:50:34;;;;;;;9.15;2.15;;;12.30;99.60;;;;;;5086238;28;20037;-53
2022/03/14 10:53:16;;;;;;;7.65;1.88;;;12.30;97.50;;;;;;5084578;28;20044;-53
2022/03/14 10:55:45;;;;;;;7.05;1.88;;;12.40;99.10;;;;;;5086091;28;20075;-55
2022/03/14 10:58:21;;;;;;;9.07;1.55;;;12.40;99.40;;;;;;5086538;28;20467;-55
2022/03/14 11:00:49;;;;;;;9.73;1.85;;;12.50;98.40;;;;;;5068198;28;20051;-55
2022/03/14 11:03:30;;;;;;;6.63;2.08;;;12.50;98.20;;;;;;5089683;28;20044;-54
2022/03/14 11:06:01;;;;;;;10.60;3.33;;;12.60;97.90;;;;;;5090473;28;20048;-50
2022/03/14 11:08:29;;;;;;;7.30;1.90;;;12.60;97.20;;;;;;5090834;28;20048;-58
2022/03/14 11:10:57;;;;;;;6.57;2.58;;;12.70;98.30;;;;;;5090434;28;20482;-56
2022/03/14 11:13:24;;;;;;;6.63;1.48;;;12.50;95.50;;;;;;5090631;28;20087;-56
2022/03/14 11:15:50;;;;;;;10.13;2.15;;;12.50;98.40;;;;;;5090313;28;20040;-56
2022/03/14 11:18:18;;;;;;;8.30;1.70;;;12.40;97.20;;;;;;5083274;28;20097;-56
2022/03/14 11:20:45;;;;;;;11.88;2.00;;;12.40;98.60;;;;;;5089957;28;20083;-57
2022/03/14 11:23:13;;;;;;;8.90;1.67;;;12.40;97.40;;;;;;5090044;28;20079;-56
2022/03/14 11:25:44;;;;;;;10.38;1.50;;;12.50;97.60;;;;;;5072513;28;20069;-55
2022/03/14 11:28:15;;;;;;;10.60;2.33;;;12.50;98.20;;;;;;5089563;28;20056;-56
2022/03/14 11:30:44;;;;;;;7.65;2.67;;;12.60;98.10;;;;;;5073088;28;20072;-56
2022/03/14 11:33:14;;;;;;;16.55;1.70;;;12.60;97.00;;;;;;5089890;28;20043;-56
2022/03/14 11:35:42;;;;;;;8.52;2.05;;;12.70;97.20;;;;;;5072304;28;20075;-56
2022/03/14 11:38:09;;;;;;;9.18;1.20;;;12.60;96.90;;;;;;5089569;28;20082;-57
2022/03/14 11:40:36;;;;;;;10.05;2.05;;;12.70;97.70;;;;;;5090020;28;20135;-55
2022/03/14 11:43:03;;;;;;;7.95;1.45;;;12.70;97.30;;;;;;5071646;28;20152;-56
2022/03/14 11:45:30;;;;;;;14.32;1.85;;;12.70;96.50;;;;;;5090176;28;20056;-53
2022/03/14 11:47:57;;;;;;;8.20;1.50;;;12.50;96.10;;;;;;5055286;28;20085;-55
2022/03/14 11:50:24;;;;;;;11.88;1.70;;;12.70;97.20;;;;;;5072182;28;20040;-54
2022/03/14 11:52:50;;;;;;;10.30;2.00;;;12.70;96.30;;;;;;5089449;28;20086;-56
2022/03/14 11:55:27;;;;;;;11.02;1.40;;;12.90;95.80;;;;;;5090027;28;20185;-57
2022/03/14 11:57:55;;;;;;;9.57;2.00;;;13.10;97.00;;;;;;5089640;28;20080;-57
2022/03/14 12:00:22;;;;;;;9.63;1.60;;;13.30;97.20;;;;;;5071955;28;20044;-58
2022/03/14 12:02:49;;;;;;;8.20;1.77;;;13.30;97.00;;;;;;5089248;28;20080;-55
2022/03/14 12:05:23;;;;;;;8.10;1.65;;;13.30;96.80;;;;;;5081377;28;20048;-53
2022/03/14 12:07:52;;;;;;;11.98;1.63;;;13.10;94.60;;;;;;5089306;28;20072;-58
2022/03/14 12:10:31;;;;;;;11.98;1.73;;;13.20;94.40;;;;;;5089410;28;20036;-54
2022/03/14 12:12:58;;;;;;;4.57;1.30;;;13.10;93.20;;;;;;5088762;28;20098;-56
2022/03/14 12:15:48;;;;;;;6.90;1.75;;;13.20;94.20;;;;;;5089000;28;20450;-56
2022/03/14 12:18:25;;;;;;;6.70;1.67;;;13.20;95.20;;;;;;5088862;28;20051;-55
2022/03/14 12:20:56;;;;;;;7.20;1.77;;;13.30;94.70;;;;;;5084156;28;20048;-57
2022/03/14 12:23:30;;;;;;;5.75;1.35;;;13.40;95.90;;;;;;5088707;28;20051;-59
2022/03/14 12:26:23;;;;;;;11.32;2.33;;;13.40;96.00;;;;;;5083448;28;20052;-58
2022/03/14 12:28:50;;;;;;;9.48;1.58;;;13.60;94.70;;;;;;5081204;28;20093;-55
2022/03/14 12:31:17;;;;;;;10.55;1.60;;;13.70;96.90;;;;;;5089113;28;20097;-57
2022/03/14 12:33:51;;;;;;;8.27;2.75;;;13.70;96.80;;;;;;5088214;28;20080;-57
2022/03/14 12:36:41;;;;;;;7.38;2.95;;;13.70;95.80;;;;;;5086087;28;20048;-57
2022/03/14 12:39:09;;;;;;;10.52;2.33;;;13.70;95.90;;;;;;5088664;28;20039;-56
2022/03/14 12:41:36;;;;;;;12.13;1.77;;;13.70;96.60;;;;;;5088741;28;20048;-56
2022/03/14 12:44:18;;;;;;;7.43;1.50;;;13.50;96.10;;;;;;5087917;28;20048;-57
2022/03/14 12:46:47;;;;;;;10.18;1.75;;;13.40;95.40;;;;;;5084147;28;20048;-56
2022/03/14 12:49:38;;;;;;;8.20;2.00;;;13.30;96.80;;;;;;5088210;28;20051;-55
2022/03/14 12:52:12;;;;;;;11.40;2.70;;;13.10;95.20;;;;;;5085549;28;20113;-54
2022/03/14 12:54:39;;;;;;;15.73;2.88;;;13.00;96.40;;;;;;5080917;28;20066;-55